sensor_id;sensor_type;location;lat;lon;timestamp;temperature;humidity
60469;DHT22;46316;47.582;10.238;2022-10-26T00:00:46;10.70;88.50
60469;DHT22;46316;47.582;10.238;2022-10-26T00:03:12;10.70;88.40
60469;DHT22;46316;47.582;10.238;2022-10-26T00:05:38;10.70;88.40
60469;DHT22;46316;47.582;10.238;2022-10-26T00:08:04;10.70;88.30
60469;DHT22;46316;47.582;10.238;2022-10-26T00:10:30;10.70;88.30
60469;DHT22;46316;47.582;10.238;2022-10-26T00:12:57;10.70;88.30
60469;DHT22;46316;47.582;10.238;2022-10-26T00:15:23;10.70;88.40
60469;DHT22;46316;47.582;10.238;2022-10-26T00:17:49;10.70;88.30
60469;DHT22;46316;47.582;10.238;2022-10-26T00:20:15;10.70;88.00
60469;DHT22;46316;47.582;10.238;2022-10-26T00:22:41;10.70;87.80
60469;DHT22;46316;47.582;10.238;2022-10-26T00:25:07;10.70;88.10
60469;DHT22;46316;47.582;10.238;2022-10-26T00:27:34;10.70;88.30
60469;DHT22;46316;47.582;10.238;2022-10-26T00:30:01;10.70;88.40
60469;DHT22;46316;47.582;10.238;2022-10-26T00:32:27;10.70;88.30
60469;DHT22;46316;47.582;10.238;2022-10-26T00:34:52;10.70;88.30
60469;DHT22;46316;47.582;10.238;2022-10-26T00:37:18;10.80;88.50
60469;DHT22;46316;47.582;10.238;2022-10-26T00:39:44;10.80;88.30
60469;DHT22;46316;47.582;10.238;2022-10-26T00:42:18;10.80;88.30
60469;DHT22;46316;47.582;10.238;2022-10-26T00:47:28;10.70;88.70
60469;DHT22;46316;47.582;10.238;2022-10-26T00:49:57;10.80;88.70
60469;DHT22;46316;47.582;10.238;2022-10-26T00:52:25;10.70;88.80
60469;DHT22;46316;47.582;10.238;2022-10-26T00:54:52;10.80;88.80
60469;DHT22;46316;47.582;10.238;2022-10-26T00:57:18;10.80;88.90
60469;DHT22;46316;47.582;10.238;2022-10-26T00:59:44;10.80;89.10
60469;DHT22;46316;47.582;10.238;2022-10-26T01:02:11;10.80;89.00
60469;DHT22;46316;47.582;10.238;2022-10-26T01:04:38;10.80;89.00
60469;DHT22;46316;47.582;10.238;2022-10-26T01:07:05;10.80;89.10
60469;DHT22;46316;47.582;10.238;2022-10-26T01:09:31;10.80;89.20
60469;DHT22;46316;47.582;10.238;2022-10-26T01:11:58;10.90;89.30
60469;DHT22;46316;47.582;10.238;2022-10-26T01:14:26;10.80;89.50
60469;DHT22;46316;47.582;10.238;2022-10-26T01:22:21;10.90;89.10
60469;DHT22;46316;47.582;10.238;2022-10-26T01:27:51;10.90;88.90
60469;DHT22;46316;47.582;10.238;2022-10-26T01:30:39;10.90;88.80
60469;DHT22;46316;47.582;10.238;2022-10-26T01:33:32;10.90;88.80
60469;DHT22;46316;47.582;10.238;2022-10-26T01:36:46;10.90;89.10
60469;DHT22;46316;47.582;10.238;2022-10-26T01:38:53;10.90;89.00
60469;DHT22;46316;47.582;10.238;2022-10-26T01:41:30;11.00;88.90
60469;DHT22;46316;47.582;10.238;2022-10-26T01:44:11;10.90;88.80
60469;DHT22;46316;47.582;10.238;2022-10-26T01:46:41;11.00;88.60
60469;DHT22;46316;47.582;10.238;2022-10-26T01:49:09;10.90;88.70
60469;DHT22;46316;47.582;10.238;2022-10-26T01:51:35;10.90;88.90
60469;DHT22;46316;47.582;10.238;2022-10-26T01:54:02;10.90;89.00
60469;DHT22;46316;47.582;10.238;2022-10-26T01:56:30;10.90;89.20
60469;DHT22;46316;47.582;10.238;2022-10-26T02:07:03;10.80;89.40
60469;DHT22;46316;47.582;10.238;2022-10-26T02:12:12;10.60;89.30
60469;DHT22;46316;47.582;10.238;2022-10-26T02:14:50;10.50;89.30
60469;DHT22;46316;47.582;10.238;2022-10-26T02:17:57;10.40;89.50
60469;DHT22;46316;47.582;10.238;2022-10-26T02:20:30;10.40;89.70
60469;DHT22;46316;47.582;10.238;2022-10-26T02:23:00;10.30;89.70
60469;DHT22;46316;47.582;10.238;2022-10-26T02:25:30;10.20;89.80
60469;DHT22;46316;47.582;10.238;2022-10-26T02:28:09;10.10;89.80
60469;DHT22;46316;47.582;10.238;2022-10-26T02:30:38;10.00;89.90
60469;DHT22;46316;47.582;10.238;2022-10-26T02:33:05;10.00;89.90
60469;DHT22;46316;47.582;10.238;2022-10-26T02:35:35;9.90;90.00
60469;DHT22;46316;47.582;10.238;2022-10-26T02:38:05;9.90;90.20
60469;DHT22;46316;47.582;10.238;2022-10-26T02:40:32;9.90;90.20
60469;DHT22;46316;47.582;10.238;2022-10-26T02:43:01;9.80;90.30
60469;DHT22;46316;47.582;10.238;2022-10-26T02:45:40;9.70;90.20
60469;DHT22;46316;47.582;10.238;2022-10-26T02:48:07;9.70;90.20
60469;DHT22;46316;47.582;10.238;2022-10-26T02:50:42;9.70;90.30
60469;DHT22;46316;47.582;10.238;2022-10-26T02:53:33;9.60;90.30
60469;DHT22;46316;47.582;10.238;2022-10-26T02:56:01;9.60;90.30
60469;DHT22;46316;47.582;10.238;2022-10-26T02:58:30;9.60;90.20
60469;DHT22;46316;47.582;10.238;2022-10-26T03:00:57;9.70;90.30
60469;DHT22;46316;47.582;10.238;2022-10-26T03:03:24;9.80;90.20
60469;DHT22;46316;47.582;10.238;2022-10-26T03:05:49;9.80;90.00
60469;DHT22;46316;47.582;10.238;2022-10-26T03:08:15;9.80;89.80
60469;DHT22;46316;47.582;10.238;2022-10-26T03:10:43;9.80;89.70
60469;DHT22;46316;47.582;10.238;2022-10-26T03:13:10;9.80;89.70
60469;DHT22;46316;47.582;10.238;2022-10-26T03:15:37;9.70;89.70
60469;DHT22;46316;47.582;10.238;2022-10-26T03:18:03;9.70;89.70
60469;DHT22;46316;47.582;10.238;2022-10-26T03:20:28;9.60;89.70
60469;DHT22;46316;47.582;10.238;2022-10-26T03:22:54;9.70;89.70
60469;DHT22;46316;47.582;10.238;2022-10-26T03:25:25;9.70;89.70
60469;DHT22;46316;47.582;10.238;2022-10-26T03:28:00;9.80;89.70
60469;DHT22;46316;47.582;10.238;2022-10-26T03:30:27;9.80;89.40
60469;DHT22;46316;47.582;10.238;2022-10-26T03:32:53;9.90;89.50
60469;DHT22;46316;47.582;10.238;2022-10-26T03:35:19;10.00;89.30
60469;DHT22;46316;47.582;10.238;2022-10-26T03:37:45;10.10;88.90
60469;DHT22;46316;47.582;10.238;2022-10-26T03:40:11;10.20;88.80
60469;DHT22;46316;47.582;10.238;2022-10-26T03:42:37;10.40;87.70
60469;DHT22;46316;47.582;10.238;2022-10-26T03:45:04;10.70;86.40
60469;DHT22;46316;47.582;10.238;2022-10-26T03:47:30;10.90;85.60
60469;DHT22;46316;47.582;10.238;2022-10-26T03:49:55;11.10;84.20
60469;DHT22;46316;47.582;10.238;2022-10-26T03:52:21;11.40;82.70
60469;DHT22;46316;47.582;10.238;2022-10-26T03:54:49;11.60;82.50
60469;DHT22;46316;47.582;10.238;2022-10-26T03:57:15;11.80;82.00
60469;DHT22;46316;47.582;10.238;2022-10-26T03:59:41;11.90;82.00
60469;DHT22;46316;47.582;10.238;2022-10-26T04:02:06;12.10;82.00
60469;DHT22;46316;47.582;10.238;2022-10-26T04:04:32;12.20;82.00
60469;DHT22;46316;47.582;10.238;2022-10-26T04:06:57;12.20;82.60
60469;DHT22;46316;47.582;10.238;2022-10-26T04:09:23;12.20;83.60
60469;DHT22;46316;47.582;10.238;2022-10-26T04:11:49;12.20;84.10
60469;DHT22;46316;47.582;10.238;2022-10-26T04:14:14;12.10;84.60
60469;DHT22;46316;47.582;10.238;2022-10-26T04:16:40;12.00;85.10
60469;DHT22;46316;47.582;10.238;2022-10-26T04:19:05;12.00;85.80
60469;DHT22;46316;47.582;10.238;2022-10-26T04:21:31;11.90;86.20
60469;DHT22;46316;47.582;10.238;2022-10-26T04:24:00;11.80;86.60
60469;DHT22;46316;47.582;10.238;2022-10-26T04:26:26;11.70;87.10
60469;DHT22;46316;47.582;10.238;2022-10-26T04:28:52;11.70;87.60
60469;DHT22;46316;47.582;10.238;2022-10-26T04:31:18;11.60;87.80
60469;DHT22;46316;47.582;10.238;2022-10-26T04:33:43;11.60;87.90
60469;DHT22;46316;47.582;10.238;2022-10-26T04:36:09;11.60;88.00
60469;DHT22;46316;47.582;10.238;2022-10-26T04:38:35;11.60;88.20
60469;DHT22;46316;47.582;10.238;2022-10-26T04:41:01;11.60;88.30
60469;DHT22;46316;47.582;10.238;2022-10-26T04:43:26;11.60;88.40
60469;DHT22;46316;47.582;10.238;2022-10-26T04:45:56;11.60;88.80
60469;DHT22;46316;47.582;10.238;2022-10-26T04:48:22;11.60;88.70
60469;DHT22;46316;47.582;10.238;2022-10-26T04:50:48;11.60;88.50
60469;DHT22;46316;47.582;10.238;2022-10-26T04:53:13;11.70;88.70
60469;DHT22;46316;47.582;10.238;2022-10-26T04:55:39;11.80;88.50
60469;DHT22;46316;47.582;10.238;2022-10-26T04:58:05;11.70;88.50
60469;DHT22;46316;47.582;10.238;2022-10-26T05:00:30;11.70;88.80
60469;DHT22;46316;47.582;10.238;2022-10-26T05:03:05;11.70;88.80
60469;DHT22;46316;47.582;10.238;2022-10-26T05:05:32;11.70;89.00
60469;DHT22;46316;47.582;10.238;2022-10-26T05:07:58;11.70;89.20
60469;DHT22;46316;47.582;10.238;2022-10-26T05:10:25;11.70;89.40
60469;DHT22;46316;47.582;10.238;2022-10-26T05:12:52;11.70;89.60
60469;DHT22;46316;47.582;10.238;2022-10-26T05:15:18;11.60;89.60
60469;DHT22;46316;47.582;10.238;2022-10-26T05:17:44;11.70;89.50
60469;DHT22;46316;47.582;10.238;2022-10-26T05:20:09;11.70;89.20
60469;DHT22;46316;47.582;10.238;2022-10-26T05:22:38;11.70;89.30
60469;DHT22;46316;47.582;10.238;2022-10-26T05:25:04;11.70;89.10
60469;DHT22;46316;47.582;10.238;2022-10-26T05:27:30;11.80;89.20
60469;DHT22;46316;47.582;10.238;2022-10-26T05:29:56;11.70;89.20
60469;DHT22;46316;47.582;10.238;2022-10-26T05:32:21;11.80;88.80
60469;DHT22;46316;47.582;10.238;2022-10-26T05:34:47;11.70;88.80
60469;DHT22;46316;47.582;10.238;2022-10-26T05:37:12;11.90;87.90
60469;DHT22;46316;47.582;10.238;2022-10-26T05:39:38;11.90;87.80
60469;DHT22;46316;47.582;10.238;2022-10-26T05:42:04;12.00;86.70
60469;DHT22;46316;47.582;10.238;2022-10-26T05:44:29;12.00;86.30
60469;DHT22;46316;47.582;10.238;2022-10-26T05:46:55;12.10;86.00
60469;DHT22;46316;47.582;10.238;2022-10-26T05:49:20;12.20;85.50
60469;DHT22;46316;47.582;10.238;2022-10-26T05:51:46;12.30;85.80
60469;DHT22;46316;47.582;10.238;2022-10-26T05:54:11;12.30;85.80
60469;DHT22;46316;47.582;10.238;2022-10-26T05:56:39;12.30;86.10
60469;DHT22;46316;47.582;10.238;2022-10-26T05:59:13;12.40;86.00
60469;DHT22;46316;47.582;10.238;2022-10-26T06:06:44;12.50;83.90
60469;DHT22;46316;47.582;10.238;2022-10-26T06:09:11;12.70;83.60
60469;DHT22;46316;47.582;10.238;2022-10-26T06:11:37;12.90;82.40
60469;DHT22;46316;47.582;10.238;2022-10-26T06:14:02;12.90;83.80
60469;DHT22;46316;47.582;10.238;2022-10-26T06:24:59;12.70;84.60
60469;DHT22;46316;47.582;10.238;2022-10-26T06:30:04;12.50;86.10
60469;DHT22;46316;47.582;10.238;2022-10-26T06:32:35;12.40;86.50
60469;DHT22;46316;47.582;10.238;2022-10-26T06:37:54;12.40;86.90
60469;DHT22;46316;47.582;10.238;2022-10-26T06:40:21;12.30;87.60
60469;DHT22;46316;47.582;10.238;2022-10-26T06:42:48;12.40;86.70
60469;DHT22;46316;47.582;10.238;2022-10-26T06:45:14;12.40;86.70
60469;DHT22;46316;47.582;10.238;2022-10-26T06:52:50;12.60;85.20
60469;DHT22;46316;47.582;10.238;2022-10-26T06:55:21;12.60;85.00
60469;DHT22;46316;47.582;10.238;2022-10-26T06:57:46;12.70;84.90
60469;DHT22;46316;47.582;10.238;2022-10-26T07:00:23;12.70;84.90
60469;DHT22;46316;47.582;10.238;2022-10-26T07:02:49;12.80;84.30
60469;DHT22;46316;47.582;10.238;2022-10-26T07:05:16;12.80;84.30
60469;DHT22;46316;47.582;10.238;2022-10-26T07:07:44;12.80;84.10
60469;DHT22;46316;47.582;10.238;2022-10-26T07:10:11;12.80;84.50
60469;DHT22;46316;47.582;10.238;2022-10-26T07:12:37;12.80;84.50
60469;DHT22;46316;47.582;10.238;2022-10-26T07:15:03;12.90;84.10
60469;DHT22;46316;47.582;10.238;2022-10-26T07:17:29;12.90;83.10
60469;DHT22;46316;47.582;10.238;2022-10-26T07:19:55;13.10;82.10
60469;DHT22;46316;47.582;10.238;2022-10-26T07:22:21;13.20;83.10
60469;DHT22;46316;47.582;10.238;2022-10-26T07:24:47;13.20;84.00
60469;DHT22;46316;47.582;10.238;2022-10-26T07:27:15;13.20;84.60
60469;DHT22;46316;47.582;10.238;2022-10-26T07:29:41;13.20;85.10
60469;DHT22;46316;47.582;10.238;2022-10-26T07:32:07;13.10;85.60
60469;DHT22;46316;47.582;10.238;2022-10-26T07:34:33;13.10;86.10
60469;DHT22;46316;47.582;10.238;2022-10-26T07:36:59;13.10;86.20
60469;DHT22;46316;47.582;10.238;2022-10-26T07:39:24;13.00;86.40
60469;DHT22;46316;47.582;10.238;2022-10-26T07:41:50;13.00;86.60
60469;DHT22;46316;47.582;10.238;2022-10-26T07:44:16;13.00;86.80
60469;DHT22;46316;47.582;10.238;2022-10-26T07:46:41;13.00;87.20
60469;DHT22;46316;47.582;10.238;2022-10-26T07:49:07;13.00;86.90
60469;DHT22;46316;47.582;10.238;2022-10-26T07:51:32;13.10;87.00
60469;DHT22;46316;47.582;10.238;2022-10-26T07:53:58;13.10;87.00
60469;DHT22;46316;47.582;10.238;2022-10-26T07:56:24;13.20;86.80
60469;DHT22;46316;47.582;10.238;2022-10-26T07:58:52;13.20;86.60
60469;DHT22;46316;47.582;10.238;2022-10-26T08:01:17;13.20;86.60
60469;DHT22;46316;47.582;10.238;2022-10-26T08:03:43;13.20;86.80
60469;DHT22;46316;47.582;10.238;2022-10-26T08:06:09;13.20;86.80
60469;DHT22;46316;47.582;10.238;2022-10-26T08:08:35;13.20;86.60
60469;DHT22;46316;47.582;10.238;2022-10-26T08:11:01;13.20;86.80
60469;DHT22;46316;47.582;10.238;2022-10-26T08:13:27;13.20;87.00
60469;DHT22;46316;47.582;10.238;2022-10-26T08:15:57;13.10;86.30
60469;DHT22;46316;47.582;10.238;2022-10-26T08:18:25;13.10;86.00
60469;DHT22;46316;47.582;10.238;2022-10-26T08:20:51;13.10;86.10
60469;DHT22;46316;47.582;10.238;2022-10-26T08:23:16;13.10;86.40
60469;DHT22;46316;47.582;10.238;2022-10-26T08:25:42;13.00;86.60
60469;DHT22;46316;47.582;10.238;2022-10-26T08:28:07;12.90;87.00
60469;DHT22;46316;47.582;10.238;2022-10-26T08:30:33;12.90;87.10
60469;DHT22;46316;47.582;10.238;2022-10-26T08:33:00;12.90;87.30
60469;DHT22;46316;47.582;10.238;2022-10-26T08:35:26;12.90;87.30
60469;DHT22;46316;47.582;10.238;2022-10-26T08:37:53;12.90;86.80
60469;DHT22;46316;47.582;10.238;2022-10-26T08:40:23;13.00;86.80
60469;DHT22;46316;47.582;10.238;2022-10-26T08:42:54;13.10;87.50
60469;DHT22;46316;47.582;10.238;2022-10-26T08:45:31;13.10;87.70
60469;DHT22;46316;47.582;10.238;2022-10-26T08:48:01;13.20;87.90
60469;DHT22;46316;47.582;10.238;2022-10-26T08:50:41;13.10;88.00
60469;DHT22;46316;47.582;10.238;2022-10-26T08:56:24;13.10;88.10
60469;DHT22;46316;47.582;10.238;2022-10-26T08:58:57;13.10;88.20
60469;DHT22;46316;47.582;10.238;2022-10-26T09:01:25;13.10;88.40
60469;DHT22;46316;47.582;10.238;2022-10-26T09:03:51;13.20;88.60
60469;DHT22;46316;47.582;10.238;2022-10-26T09:06:38;13.30;88.70
60469;DHT22;46316;47.582;10.238;2022-10-26T09:09:20;13.40;88.90
60469;DHT22;46316;47.582;10.238;2022-10-26T09:12:08;13.60;88.80
60469;DHT22;46316;47.582;10.238;2022-10-26T09:25:50;13.90;87.60
60469;DHT22;46316;47.582;10.238;2022-10-26T09:28:18;14.10;87.50
60469;DHT22;46316;47.582;10.238;2022-10-26T09:30:45;14.30;87.20
60469;DHT22;46316;47.582;10.238;2022-10-26T09:33:19;14.40;86.30
60469;DHT22;46316;47.582;10.238;2022-10-26T09:38:43;14.40;86.20
60469;DHT22;46316;47.582;10.238;2022-10-26T09:41:25;14.60;85.90
60469;DHT22;46316;47.582;10.238;2022-10-26T09:46:29;15.00;84.60
60469;DHT22;46316;47.582;10.238;2022-10-26T09:49:03;15.50;84.30
60469;DHT22;46316;47.582;10.238;2022-10-26T09:51:32;16.30;82.60
60469;DHT22;46316;47.582;10.238;2022-10-26T09:53:58;17.00;80.40
60469;DHT22;46316;47.582;10.238;2022-10-26T09:56:27;17.70;78.30
60469;DHT22;46316;47.582;10.238;2022-10-26T09:59:00;18.40;76.50
60469;DHT22;46316;47.582;10.238;2022-10-26T10:01:33;19.00;75.20
60469;DHT22;46316;47.582;10.238;2022-10-26T10:04:25;19.20;71.50
60469;DHT22;46316;47.582;10.238;2022-10-26T10:07:11;18.90;71.90
60469;DHT22;46316;47.582;10.238;2022-10-26T10:09:39;18.80;73.00
60469;DHT22;46316;47.582;10.238;2022-10-26T10:12:16;18.40;74.20
60469;DHT22;46316;47.582;10.238;2022-10-26T10:14:55;18.20;74.80
60469;DHT22;46316;47.582;10.238;2022-10-26T10:17:22;18.00;76.70
60469;DHT22;46316;47.582;10.238;2022-10-26T10:19:48;17.80;76.20
60469;DHT22;46316;47.582;10.238;2022-10-26T10:24:56;17.80;75.60
60469;DHT22;46316;47.582;10.238;2022-10-26T10:27:23;17.90;73.90
60469;DHT22;46316;47.582;10.238;2022-10-26T10:29:51;17.70;73.80
60469;DHT22;46316;47.582;10.238;2022-10-26T10:32:19;17.60;73.50
60469;DHT22;46316;47.582;10.238;2022-10-26T10:34:48;17.80;72.70
60469;DHT22;46316;47.582;10.238;2022-10-26T10:37:39;17.70;72.50
60469;DHT22;46316;47.582;10.238;2022-10-26T10:40:21;17.90;73.90
60469;DHT22;46316;47.582;10.238;2022-10-26T10:42:49;18.30;73.50
60469;DHT22;46316;47.582;10.238;2022-10-26T10:45:28;18.90;72.40
60469;DHT22;46316;47.582;10.238;2022-10-26T10:48:15;19.40;71.20
60469;DHT22;46316;47.582;10.238;2022-10-26T10:51:03;19.50;68.70
60469;DHT22;46316;47.582;10.238;2022-10-26T11:04:38;21.10;65.70
60469;DHT22;46316;47.582;10.238;2022-10-26T11:07:11;21.20;65.50
60469;DHT22;46316;47.582;10.238;2022-10-26T11:09:41;20.90;65.50
60469;DHT22;46316;47.582;10.238;2022-10-26T11:12:09;20.60;65.60
60469;DHT22;46316;47.582;10.238;2022-10-26T11:14:41;20.00;66.50
60469;DHT22;46316;47.582;10.238;2022-10-26T11:17:33;19.60;67.40
60469;DHT22;46316;47.582;10.238;2022-10-26T11:20:19;19.30;67.00
60469;DHT22;46316;47.582;10.238;2022-10-26T11:23:21;19.10;67.30
60469;DHT22;46316;47.582;10.238;2022-10-26T11:25:57;18.90;68.00
60469;DHT22;46316;47.582;10.238;2022-10-26T11:28:56;18.50;68.30
60469;DHT22;46316;47.582;10.238;2022-10-26T11:31:46;18.20;69.60
60469;DHT22;46316;47.582;10.238;2022-10-26T11:34:38;17.90;71.30
60469;DHT22;46316;47.582;10.238;2022-10-26T11:37:20;17.70;69.30
60469;DHT22;46316;47.582;10.238;2022-10-26T11:45:40;17.80;70.50
60469;DHT22;46316;47.582;10.238;2022-10-26T11:48:18;17.80;68.90
60469;DHT22;46316;47.582;10.238;2022-10-26T11:50:50;17.80;69.20
60469;DHT22;46316;47.582;10.238;2022-10-26T11:53:20;17.80;70.30
60469;DHT22;46316;47.582;10.238;2022-10-26T11:55:52;17.80;70.70
60469;DHT22;46316;47.582;10.238;2022-10-26T11:58:22;18.00;70.50
60469;DHT22;46316;47.582;10.238;2022-10-26T12:00:50;18.10;68.70
60469;DHT22;46316;47.582;10.238;2022-10-26T12:03:20;18.10;69.70
60469;DHT22;46316;47.582;10.238;2022-10-26T12:05:49;18.30;68.30
60469;DHT22;46316;47.582;10.238;2022-10-26T12:08:39;18.20;68.60
60469;DHT22;46316;47.582;10.238;2022-10-26T12:14:01;18.30;68.30
60469;DHT22;46316;47.582;10.238;2022-10-26T12:22:19;18.30;66.70
60469;DHT22;46316;47.582;10.238;2022-10-26T12:25:04;18.20;66.80
60469;DHT22;46316;47.582;10.238;2022-10-26T12:27:31;18.10;66.60
60469;DHT22;46316;47.582;10.238;2022-10-26T12:48:44;18.90;65.70
60469;DHT22;46316;47.582;10.238;2022-10-26T12:59:46;19.40;62.70
60469;DHT22;46316;47.582;10.238;2022-10-26T13:05:13;19.40;61.90
60469;DHT22;46316;47.582;10.238;2022-10-26T13:07:49;19.40;62.30
60469;DHT22;46316;47.582;10.238;2022-10-26T13:12:48;19.40;60.90
60469;DHT22;46316;47.582;10.238;2022-10-26T13:15:30;19.40;61.50
60469;DHT22;46316;47.582;10.238;2022-10-26T13:18:18;19.30;61.10
60469;DHT22;46316;47.582;10.238;2022-10-26T13:21:05;19.30;62.20
60469;DHT22;46316;47.582;10.238;2022-10-26T13:23:34;19.40;61.70
60469;DHT22;46316;47.582;10.238;2022-10-26T13:26:12;19.40;61.10
60469;DHT22;46316;47.582;10.238;2022-10-26T13:33:58;19.40;60.70
60469;DHT22;46316;47.582;10.238;2022-10-26T13:36:50;19.40;60.50
60469;DHT22;46316;47.582;10.238;2022-10-26T13:39:22;19.40;60.50
60469;DHT22;46316;47.582;10.238;2022-10-26T13:41:51;19.20;61.20
60469;DHT22;46316;47.582;10.238;2022-10-26T13:45:02;19.00;61.40
60469;DHT22;46316;47.582;10.238;2022-10-26T13:50:26;18.80;63.00
60469;DHT22;46316;47.582;10.238;2022-10-26T13:53:07;18.70;62.90
60469;DHT22;46316;47.582;10.238;2022-10-26T13:55:54;18.60;63.10
60469;DHT22;46316;47.582;10.238;2022-10-26T13:58:28;18.60;63.20
60469;DHT22;46316;47.582;10.238;2022-10-26T14:01:00;18.50;63.80
60469;DHT22;46316;47.582;10.238;2022-10-26T14:03:26;18.50;64.00
60469;DHT22;46316;47.582;10.238;2022-10-26T14:05:52;18.50;63.90
60469;DHT22;46316;47.582;10.238;2022-10-26T14:08:18;18.40;63.30
60469;DHT22;46316;47.582;10.238;2022-10-26T14:10:53;18.30;64.50
60469;DHT22;46316;47.582;10.238;2022-10-26T14:13:22;18.20;63.80
60469;DHT22;46316;47.582;10.238;2022-10-26T14:15:50;18.00;64.50
60469;DHT22;46316;47.582;10.238;2022-10-26T14:18:20;17.90;64.90
60469;DHT22;46316;47.582;10.238;2022-10-26T14:21:00;17.90;65.60
60469;DHT22;46316;47.582;10.238;2022-10-26T14:23:36;17.70;66.10
60469;DHT22;46316;47.582;10.238;2022-10-26T14:26:25;17.60;66.50
60469;DHT22;46316;47.582;10.238;2022-10-26T14:28:53;17.60;67.40
60469;DHT22;46316;47.582;10.238;2022-10-26T14:31:28;17.40;67.90
60469;DHT22;46316;47.582;10.238;2022-10-26T14:33:55;17.50;68.40
60469;DHT22;46316;47.582;10.238;2022-10-26T14:36:36;17.40;68.30
60469;DHT22;46316;47.582;10.238;2022-10-26T14:39:06;17.40;68.60
60469;DHT22;46316;47.582;10.238;2022-10-26T14:41:36;17.40;68.70
60469;DHT22;46316;47.582;10.238;2022-10-26T14:44:02;17.40;68.90
60469;DHT22;46316;47.582;10.238;2022-10-26T14:46:33;17.40;68.60
60469;DHT22;46316;47.582;10.238;2022-10-26T14:49:00;17.40;68.90
60469;DHT22;46316;47.582;10.238;2022-10-26T14:51:28;17.40;68.70
60469;DHT22;46316;47.582;10.238;2022-10-26T14:53:59;17.30;68.90
60469;DHT22;46316;47.582;10.238;2022-10-26T14:59:17;17.20;69.20
60469;DHT22;46316;47.582;10.238;2022-10-26T15:01:48;17.10;69.50
60469;DHT22;46316;47.582;10.238;2022-10-26T15:09:44;16.90;70.50
60469;DHT22;46316;47.582;10.238;2022-10-26T15:12:32;16.70;71.00
60469;DHT22;46316;47.582;10.238;2022-10-26T15:17:37;16.50;71.50
60469;DHT22;46316;47.582;10.238;2022-10-26T15:20:05;16.50;71.70
60469;DHT22;46316;47.582;10.238;2022-10-26T15:22:32;16.40;72.00
60469;DHT22;46316;47.582;10.238;2022-10-26T15:25:01;16.30;72.50
60469;DHT22;46316;47.582;10.238;2022-10-26T15:27:28;16.20;73.20
60469;DHT22;46316;47.582;10.238;2022-10-26T15:30:26;16.10;73.80
60469;DHT22;46316;47.582;10.238;2022-10-26T15:32:55;16.00;74.90
60469;DHT22;46316;47.582;10.238;2022-10-26T15:35:29;15.90;76.00
60469;DHT22;46316;47.582;10.238;2022-10-26T15:37:56;15.70;76.40
60469;DHT22;46316;47.582;10.238;2022-10-26T15:40:23;15.70;77.00
60469;DHT22;46316;47.582;10.238;2022-10-26T15:42:52;15.50;77.30
60469;DHT22;46316;47.582;10.238;2022-10-26T15:45:22;15.40;77.40
60469;DHT22;46316;47.582;10.238;2022-10-26T15:47:49;15.30;77.80
60469;DHT22;46316;47.582;10.238;2022-10-26T15:50:20;15.30;78.20
60469;DHT22;46316;47.582;10.238;2022-10-26T15:52:46;15.10;78.50
60469;DHT22;46316;47.582;10.238;2022-10-26T15:55:12;15.00;78.90
60469;DHT22;46316;47.582;10.238;2022-10-26T15:57:37;14.90;79.30
60469;DHT22;46316;47.582;10.238;2022-10-26T16:00:05;14.80;79.70
60469;DHT22;46316;47.582;10.238;2022-10-26T16:02:33;14.70;80.30
60469;DHT22;46316;47.582;10.238;2022-10-26T16:05:00;14.50;80.80
60469;DHT22;46316;47.582;10.238;2022-10-26T16:07:26;14.40;81.10
60469;DHT22;46316;47.582;10.238;2022-10-26T16:09:53;14.30;81.20
60469;DHT22;46316;47.582;10.238;2022-10-26T16:12:19;14.10;81.80
60469;DHT22;46316;47.582;10.238;2022-10-26T16:14:44;14.00;82.00
60469;DHT22;46316;47.582;10.238;2022-10-26T16:17:10;13.90;82.20
60469;DHT22;46316;47.582;10.238;2022-10-26T16:19:35;13.90;82.30
60469;DHT22;46316;47.582;10.238;2022-10-26T16:22:01;13.90;82.30
60469;DHT22;46316;47.582;10.238;2022-10-26T16:24:28;13.80;82.80
60469;DHT22;46316;47.582;10.238;2022-10-26T16:26:54;13.70;82.70
60469;DHT22;46316;47.582;10.238;2022-10-26T16:29:19;13.60;82.90
60469;DHT22;46316;47.582;10.238;2022-10-26T16:31:46;13.50;83.00
60469;DHT22;46316;47.582;10.238;2022-10-26T16:34:11;13.40;83.50
60469;DHT22;46316;47.582;10.238;2022-10-26T16:36:37;13.30;83.80
60469;DHT22;46316;47.582;10.238;2022-10-26T16:39:04;13.30;84.00
60469;DHT22;46316;47.582;10.238;2022-10-26T16:41:30;13.20;83.90
60469;DHT22;46316;47.582;10.238;2022-10-26T16:43:56;13.10;84.10
60469;DHT22;46316;47.582;10.238;2022-10-26T16:46:22;13.00;84.50
60469;DHT22;46316;47.582;10.238;2022-10-26T16:48:49;12.90;84.60
60469;DHT22;46316;47.582;10.238;2022-10-26T16:51:19;12.80;84.90
60469;DHT22;46316;47.582;10.238;2022-10-26T16:53:50;12.80;85.00
60469;DHT22;46316;47.582;10.238;2022-10-26T16:56:21;12.70;85.40
60469;DHT22;46316;47.582;10.238;2022-10-26T16:58:47;12.70;85.60
60469;DHT22;46316;47.582;10.238;2022-10-26T17:01:14;12.60;85.80
60469;DHT22;46316;47.582;10.238;2022-10-26T17:03:43;12.60;85.90
60469;DHT22;46316;47.582;10.238;2022-10-26T17:06:09;12.60;86.10
60469;DHT22;46316;47.582;10.238;2022-10-26T17:08:35;12.50;86.20
60469;DHT22;46316;47.582;10.238;2022-10-26T17:11:11;12.50;86.40
60469;DHT22;46316;47.582;10.238;2022-10-26T17:13:37;12.50;86.20
60469;DHT22;46316;47.582;10.238;2022-10-26T17:16:06;12.50;86.40
60469;DHT22;46316;47.582;10.238;2022-10-26T17:18:32;12.40;86.20
60469;DHT22;46316;47.582;10.238;2022-10-26T17:20:58;12.40;86.20
60469;DHT22;46316;47.582;10.238;2022-10-26T17:23:23;12.40;86.10
60469;DHT22;46316;47.582;10.238;2022-10-26T17:25:49;12.40;86.20
60469;DHT22;46316;47.582;10.238;2022-10-26T17:28:15;12.30;86.40
60469;DHT22;46316;47.582;10.238;2022-10-26T17:30:41;12.20;86.70
60469;DHT22;46316;47.582;10.238;2022-10-26T17:33:07;12.20;86.70
60469;DHT22;46316;47.582;10.238;2022-10-26T17:35:33;12.20;86.70
60469;DHT22;46316;47.582;10.238;2022-10-26T17:37:59;12.10;86.90
60469;DHT22;46316;47.582;10.238;2022-10-26T17:40:25;12.10;87.00
60469;DHT22;46316;47.582;10.238;2022-10-26T17:42:50;12.00;87.20
60469;DHT22;46316;47.582;10.238;2022-10-26T17:45:16;12.00;87.40
60469;DHT22;46316;47.582;10.238;2022-10-26T17:47:41;11.90;87.60
60469;DHT22;46316;47.582;10.238;2022-10-26T17:50:07;11.90;87.90
60469;DHT22;46316;47.582;10.238;2022-10-26T17:52:34;11.90;88.10
60469;DHT22;46316;47.582;10.238;2022-10-26T17:54:59;11.90;88.10
60469;DHT22;46316;47.582;10.238;2022-10-26T17:57:25;11.90;88.20
60469;DHT22;46316;47.582;10.238;2022-10-26T17:59:51;11.90;88.30